createdAt,value
2018-03-06T00:00:49.806Z,53.40
2018-03-06T00:03:18.472Z,54.17
2018-03-06T00:05:46.427Z,56.27
2018-03-06T00:08:14.399Z,54.87
2018-03-06T00:10:45.902Z,53.57
2018-03-06T00:13:14.181Z,52.23
2018-03-06T00:15:42.087Z,57.27
2018-03-06T00:18:10.026Z,53.37
2018-03-06T00:20:37.977Z,58.53
2018-03-06T00:23:05.961Z,54.30
2018-03-06T00:25:34.438Z,53.23
2018-03-06T00:28:02.370Z,54.57
2018-03-06T00:30:30.334Z,55.27
2018-03-06T00:32:59.177Z,54.90
2018-03-06T00:35:27.131Z,56.60
2018-03-06T00:37:55.073Z,53.23
2018-03-06T00:40:23.036Z,55.97
2018-03-06T00:42:51.938Z,54.53
2018-03-06T00:45:20.203Z,53.80
2018-03-06T00:47:48.157Z,56.80
2018-03-06T00:50:16.073Z,54.97
2018-03-06T00:52:44.037Z,57.97
2018-03-06T00:55:11.978Z,56.50
2018-03-06T00:57:39.928Z,55.07
2018-03-06T01:00:07.855Z,57.00
2018-03-06T01:02:35.819Z,56.43
2018-03-06T01:05:05.958Z,57.87
2018-03-06T01:07:34.002Z,56.50
2018-03-06T01:10:01.978Z,55.53
2018-03-06T01:12:29.912Z,57.67
2018-03-06T01:14:59.292Z,58.00
2018-03-06T01:17:27.235Z,56.60
2018-03-06T01:19:56.009Z,54.30
2018-03-06T01:22:24.319Z,55.20
2018-03-06T01:24:56.416Z,56.77
2018-03-06T01:27:24.484Z,56.20
2018-03-06T01:29:52.843Z,56.07
2018-03-06T01:32:20.775Z,56.97
2018-03-06T01:34:48.703Z,57.80
2018-03-06T01:37:16.647Z,57.42
2018-03-06T01:39:44.676Z,53.93
2018-03-06T01:42:12.957Z,55.80
2018-03-06T01:44:42.789Z,58.20
2018-03-06T01:47:10.757Z,56.43
2018-03-06T01:49:39.596Z,58.00
2018-03-06T01:52:07.498Z,56.03
2018-03-06T01:54:35.433Z,55.47
2018-03-06T01:57:05.245Z,58.30
2018-03-06T01:59:33.565Z,57.80
2018-03-06T02:02:01.525Z,58.17
2018-03-06T02:04:29.797Z,56.17
2018-03-06T02:06:58.452Z,54.53
2018-03-06T02:09:26.394Z,56.03
2018-03-06T02:11:57.872Z,58.67
2018-03-06T02:14:29.327Z,57.47
2018-03-06T02:16:57.289Z,57.80
2018-03-06T02:19:25.220Z,59.60
2018-03-06T02:21:53.156Z,56.33
2018-03-06T02:24:24.477Z,58.27
2018-03-06T02:26:52.384Z,59.90
2018-03-06T02:29:20.390Z,57.70
2018-03-06T02:31:51.764Z,57.40
2018-03-06T02:34:19.674Z,57.07
2018-03-06T02:36:47.625Z,59.00
2018-03-06T02:39:15.577Z,58.60
2018-03-06T02:41:43.489Z,58.77
2018-03-06T02:44:11.432Z,56.00
2018-03-06T02:46:39.370Z,56.03
2018-03-06T02:49:07.669Z,55.97
2018-03-06T02:51:35.584Z,57.97
2018-03-06T02:54:03.546Z,58.60
2018-03-06T02:56:31.500Z,60.80
2018-03-06T02:58:59.425Z,56.33
2018-03-06T03:01:27.362Z,54.55
2018-03-06T03:03:55.368Z,56.73
2018-03-06T03:06:24.115Z,57.00
2018-03-06T03:08:52.649Z,59.97
2018-03-06T03:11:20.609Z,59.40
2018-03-06T03:13:48.536Z,57.40
2018-03-06T03:18:48.686Z,62.40
2018-03-06T03:21:17.522Z,58.83
2018-03-06T03:23:51.513Z,61.20
2018-03-06T03:26:23.183Z,61.77
2018-03-06T03:28:51.114Z,59.27
2018-03-06T03:31:19.092Z,62.90
2018-03-06T03:33:47.029Z,60.67
2018-03-06T03:36:14.997Z,60.07
2018-03-06T03:38:42.957Z,60.10
2018-03-06T03:41:10.926Z,61.37
2018-03-06T03:43:38.921Z,61.15
2018-03-06T03:46:06.888Z,61.20
2018-03-06T03:48:34.834Z,60.00
2018-03-06T03:51:02.777Z,58.17
2018-03-06T03:53:30.768Z,58.60
2018-03-06T03:55:59.639Z,58.00
2018-03-06T03:58:27.587Z,60.47
2018-03-06T04:00:55.522Z,57.25
2018-03-06T04:03:23.469Z,55.95
2018-03-06T04:05:51.436Z,59.50
2018-03-06T04:08:19.393Z,56.75
2018-03-06T04:10:47.355Z,59.37
2018-03-06T04:13:15.309Z,61.33
2018-03-06T04:15:43.270Z,62.83
2018-03-06T04:20:44.427Z,57.72
2018-03-06T04:23:12.374Z,61.90
2018-03-06T04:25:40.316Z,60.90
2018-03-06T04:28:08.343Z,60.70
2018-03-06T04:33:17.370Z,57.23
2018-03-06T04:35:51.528Z,58.20
2018-03-06T04:40:53.597Z,62.17
2018-03-06T04:43:21.519Z,62.55
2018-03-06T04:45:49.480Z,61.40
2018-03-06T04:48:17.414Z,63.83
2018-03-06T04:50:45.385Z,61.70
2018-03-06T04:53:16.657Z,61.60
2018-03-06T04:55:44.649Z,60.88
2018-03-06T04:58:12.596Z,63.10
2018-03-06T05:00:40.547Z,61.42
2018-03-06T05:03:08.482Z,62.97
2018-03-06T05:05:36.505Z,58.85
2018-03-06T05:08:04.448Z,63.58
2018-03-06T05:10:32.407Z,61.30
2018-03-06T05:13:00.360Z,62.20
2018-03-06T05:15:28.331Z,64.10
2018-03-06T05:17:56.270Z,65.18
2018-03-06T05:20:24.212Z,63.80
2018-03-06T05:22:52.159Z,63.70
2018-03-06T05:25:20.132Z,61.80
2018-03-06T05:27:48.099Z,65.80
2018-03-06T05:30:16.049Z,59.07
2018-03-06T05:32:44.032Z,65.68
2018-03-06T05:35:11.987Z,65.22
2018-03-06T05:37:39.925Z,67.97
2018-03-06T05:40:07.878Z,62.53
2018-03-06T05:42:35.814Z,64.67
2018-03-06T05:45:04.353Z,64.50
2018-03-06T05:47:32.264Z,67.00
2018-03-06T05:50:00.645Z,64.78
2018-03-06T05:52:28.606Z,66.82
2018-03-06T05:54:56.553Z,67.50
2018-03-06T05:57:24.500Z,114.23
2018-03-06T05:59:55.055Z,81.72
2018-03-06T06:02:22.985Z,66.32
2018-03-06T06:04:50.939Z,62.40
2018-03-06T06:07:18.879Z,63.22
2018-03-06T06:09:46.832Z,66.77
2018-03-06T06:12:14.773Z,61.92
2018-03-06T06:14:42.767Z,64.95
2018-03-06T06:17:10.722Z,67.70
2018-03-06T06:19:38.692Z,63.90
2018-03-06T06:22:06.636Z,64.00
2018-03-06T06:24:34.592Z,64.10
2018-03-06T06:27:02.617Z,65.95
2018-03-06T06:29:30.543Z,61.67
2018-03-06T06:31:58.486Z,71.15
2018-03-06T06:34:26.446Z,95.55
2018-03-06T06:36:54.387Z,85.27
2018-03-06T06:39:22.377Z,66.15
2018-03-06T06:41:50.374Z,65.70
2018-03-06T06:44:18.297Z,63.45
2018-03-06T06:46:46.269Z,62.10
2018-03-06T06:49:14.236Z,62.58
2018-03-06T06:51:42.167Z,62.80
2018-03-06T06:54:10.139Z,64.53
2018-03-06T06:56:38.185Z,60.97
2018-03-06T06:59:06.150Z,60.73
2018-03-06T07:01:34.083Z,66.20
2018-03-06T07:04:02.032Z,63.40
2018-03-06T07:06:30.023Z,64.37
2018-03-06T07:08:57.961Z,64.45
2018-03-06T07:11:25.969Z,64.95
2018-03-06T07:13:53.910Z,61.53
2018-03-06T07:16:22.223Z,61.55
2018-03-06T07:18:50.286Z,64.13
2018-03-06T07:21:18.318Z,60.63
2018-03-06T07:23:46.341Z,61.83
2018-03-06T07:26:14.299Z,60.93
2018-03-06T07:28:42.220Z,60.10
2018-03-06T07:31:10.144Z,60.47
2018-03-06T07:33:38.119Z,59.03
2018-03-06T07:36:06.109Z,60.63
2018-03-06T07:38:34.096Z,60.97
2018-03-06T07:41:02.044Z,64.87
2018-03-06T07:43:29.979Z,54.60
2018-03-06T07:45:57.900Z,57.90
2018-03-06T07:48:25.877Z,59.57
2018-03-06T07:50:53.821Z,57.63
2018-03-06T07:53:21.813Z,57.37
2018-03-06T07:55:49.764Z,60.10
2018-03-06T07:58:17.766Z,59.43
2018-03-06T08:00:45.739Z,56.37
2018-03-06T08:03:13.713Z,60.13
2018-03-06T08:05:41.668Z,59.13
2018-03-06T08:08:09.638Z,57.73
2018-03-06T08:10:37.571Z,54.07
2018-03-06T08:13:05.588Z,57.23
2018-03-06T08:15:33.538Z,58.07
2018-03-06T08:18:01.505Z,61.17
2018-03-06T08:20:29.474Z,56.63
2018-03-06T08:22:57.387Z,53.30
2018-03-06T08:25:25.337Z,55.70
2018-03-06T08:27:53.283Z,54.70
2018-03-06T08:30:21.216Z,57.23
2018-03-06T08:32:49.157Z,53.00
2018-03-06T08:35:17.094Z,58.33
2018-03-06T08:37:45.154Z,61.07
2018-03-06T08:40:13.133Z,56.80
2018-03-06T08:42:41.100Z,55.37
2018-03-06T08:45:09.140Z,56.43
2018-03-06T08:47:37.080Z,55.40
2018-03-06T08:50:05.025Z,53.30
2018-03-06T08:52:32.994Z,53.87
2018-03-06T08:55:00.950Z,53.73
2018-03-06T08:57:28.917Z,55.27
2018-03-06T08:59:56.819Z,58.10
2018-03-06T09:02:24.789Z,57.53
2018-03-06T09:04:52.722Z,59.33
2018-03-06T09:07:20.647Z,58.00
2018-03-06T09:09:48.576Z,59.17
2018-03-06T09:12:16.565Z,59.60
2018-03-06T09:14:44.505Z,60.57
2018-03-06T09:17:12.485Z,58.00
2018-03-06T09:19:40.702Z,57.30
2018-03-06T09:22:08.647Z,56.73
2018-03-06T09:24:37.068Z,57.20
2018-03-06T09:27:05.146Z,58.50
2018-03-06T09:29:33.131Z,57.80
2018-03-06T09:32:01.161Z,57.77
2018-03-06T09:34:29.194Z,60.37
2018-03-06T09:36:57.360Z,57.93
2018-03-06T09:39:25.268Z,56.57
2018-03-06T09:41:53.242Z,60.87
2018-03-06T09:44:21.221Z,58.40
2018-03-06T09:46:49.156Z,54.87
2018-03-06T09:49:17.134Z,58.33
2018-03-06T09:51:45.131Z,59.70
2018-03-06T09:54:13.132Z,57.40
2018-03-06T09:56:41.065Z,58.20
2018-03-06T09:59:09.228Z,60.77
2018-03-06T10:01:56.750Z,57.57
2018-03-06T10:04:25.551Z,58.70
2018-03-06T10:06:53.512Z,58.77
2018-03-06T10:09:21.485Z,60.80
2018-03-06T10:11:49.479Z,59.03
2018-03-06T10:14:17.423Z,62.23
2018-03-06T10:16:45.374Z,63.97
2018-03-06T10:19:13.361Z,70.03
2018-03-06T10:21:41.322Z,66.00
2018-03-06T10:24:09.291Z,65.20
2018-03-06T10:26:37.228Z,67.47
2018-03-06T10:29:05.195Z,67.77
2018-03-06T10:31:33.225Z,65.83
2018-03-06T10:34:01.177Z,65.33
2018-03-06T10:36:29.161Z,68.93
2018-03-06T10:38:57.106Z,69.20
2018-03-06T10:41:25.085Z,66.17
2018-03-06T10:43:53.162Z,64.20
2018-03-06T10:46:21.121Z,60.83
2018-03-06T10:48:49.092Z,61.70
2018-03-06T10:51:17.078Z,61.80
2018-03-06T10:53:45.001Z,60.97
2018-03-06T10:56:12.968Z,62.00
2018-03-06T10:58:41.039Z,57.60
2018-03-06T11:01:09.052Z,56.70
2018-03-06T11:03:44.034Z,57.00
2018-03-06T11:06:11.993Z,58.97
2018-03-06T11:08:39.972Z,60.60
2018-03-06T11:11:07.992Z,59.50
2018-03-06T11:13:36.018Z,61.40
2018-03-06T11:16:03.989Z,59.73
2018-03-06T11:18:31.954Z,60.30
2018-03-06T11:20:59.890Z,61.50
2018-03-06T11:23:27.837Z,59.03
2018-03-06T11:25:55.784Z,58.20
2018-03-06T11:28:23.760Z,59.43
2018-03-06T11:30:51.678Z,58.13
2018-03-06T11:33:19.688Z,61.80
2018-03-06T11:35:47.675Z,59.20
2018-03-06T11:38:15.617Z,60.17
2018-03-06T11:40:43.623Z,59.63
2018-03-06T11:43:12.040Z,62.30
2018-03-06T11:45:40.097Z,58.07
2018-03-06T11:48:08.123Z,57.67
2018-03-06T11:50:36.101Z,55.47
2018-03-06T11:53:04.070Z,56.03
2018-03-06T11:55:32.033Z,54.03
2018-03-06T11:58:00.023Z,53.53
2018-03-06T12:00:28.038Z,53.60
2018-03-06T12:02:56.088Z,57.90
2018-03-06T12:05:24.123Z,55.40
2018-03-06T12:07:52.082Z,52.13
2018-03-06T12:10:20.298Z,54.27
2018-03-06T12:12:48.319Z,54.37
2018-03-06T12:15:17.170Z,52.17
2018-03-06T12:17:45.233Z,51.47
2018-03-06T12:20:13.245Z,53.50
2018-03-06T12:22:41.694Z,54.03
2018-03-06T12:25:09.715Z,54.07
2018-03-06T12:27:39.392Z,54.23
2018-03-06T12:30:07.444Z,51.60
2018-03-06T12:32:35.354Z,50.73
2018-03-06T12:35:03.311Z,48.10
2018-03-06T12:37:31.296Z,49.13
2018-03-06T12:39:59.282Z,49.50
2018-03-06T12:42:27.235Z,50.30
2018-03-06T12:44:55.183Z,53.17
2018-03-06T12:47:23.129Z,51.27
2018-03-06T12:49:51.119Z,54.27
2018-03-06T12:52:19.071Z,55.43
2018-03-06T12:54:47.132Z,83.67
2018-03-06T12:57:15.464Z,118.77
2018-03-06T12:59:43.432Z,73.67
2018-03-06T13:02:11.480Z,76.43
2018-03-06T13:04:39.455Z,67.30
2018-03-06T13:07:07.483Z,61.80
2018-03-06T13:09:35.395Z,59.17
2018-03-06T13:12:03.390Z,107.70
2018-03-06T13:14:31.328Z,66.30
2018-03-06T13:16:59.276Z,77.67
2018-03-06T13:19:27.227Z,64.63
2018-03-06T13:21:55.157Z,62.27
2018-03-06T13:24:23.102Z,59.77
2018-03-06T13:26:51.097Z,56.13
2018-03-06T13:29:19.086Z,59.73
2018-03-06T13:31:47.036Z,60.00
2018-03-06T13:34:15.014Z,58.20
2018-03-06T13:36:42.968Z,58.17
2018-03-06T13:39:10.971Z,55.57
2018-03-06T13:41:38.912Z,56.43
2018-03-06T13:44:07.104Z,56.60
2018-03-06T13:46:35.063Z,57.20
2018-03-06T13:49:02.992Z,58.93
2018-03-06T13:51:30.952Z,56.20
2018-03-06T13:53:58.946Z,58.53
2018-03-06T13:56:26.939Z,55.63
2018-03-06T13:58:54.882Z,56.27
2018-03-06T14:01:22.855Z,59.83
2018-03-06T14:03:50.903Z,61.40
2018-03-06T14:06:18.837Z,59.30
2018-03-06T14:08:46.851Z,58.87
2018-03-06T14:11:14.830Z,60.50
2018-03-06T14:13:42.825Z,61.70
2018-03-06T14:16:10.802Z,59.50
2018-03-06T14:18:38.835Z,58.00
2018-03-06T14:21:06.761Z,58.40
2018-03-06T14:23:34.701Z,56.90
2018-03-06T14:26:02.662Z,57.40
2018-03-06T14:28:30.548Z,57.80
2018-03-06T14:30:58.465Z,56.97
2018-03-06T14:33:26.374Z,58.30
2018-03-06T14:35:54.321Z,61.17
2018-03-06T14:38:22.235Z,60.50
2018-03-06T14:40:50.180Z,58.93
2018-03-06T14:43:18.109Z,59.07
2018-03-06T14:45:46.074Z,63.13
2018-03-06T14:48:14.010Z,63.27
2018-03-06T14:50:41.938Z,63.10
2018-03-06T14:53:09.909Z,68.60
2018-03-06T14:55:37.858Z,67.53
2018-03-06T14:58:05.846Z,64.43
2018-03-06T15:00:33.792Z,63.50
2018-03-06T15:03:01.730Z,64.13
2018-03-06T15:05:29.675Z,66.17
2018-03-06T15:07:57.640Z,63.13
2018-03-06T15:10:25.574Z,64.33
2018-03-06T15:12:53.577Z,63.97
2018-03-06T15:15:21.547Z,66.37
2018-03-06T15:17:49.522Z,66.60
2018-03-06T15:20:17.553Z,63.27
2018-03-06T15:22:45.490Z,63.37
2018-03-06T15:25:13.408Z,68.57
2018-03-06T15:27:41.391Z,69.77
2018-03-06T15:30:09.371Z,74.10
2018-03-06T15:32:37.341Z,74.10
2018-03-06T15:35:05.277Z,77.37
2018-03-06T15:37:33.242Z,73.90
2018-03-06T15:40:01.201Z,75.00
2018-03-06T15:42:29.209Z,72.70
2018-03-06T15:44:57.162Z,75.23
2018-03-06T15:47:25.238Z,77.87
2018-03-06T15:49:53.179Z,80.87
2018-03-06T15:52:21.153Z,78.40
2018-03-06T15:54:49.113Z,84.80
2018-03-06T15:57:17.165Z,94.43
2018-03-06T15:59:45.173Z,79.60
2018-03-06T16:02:13.135Z,79.47
2018-03-06T16:04:41.154Z,79.63
2018-03-06T16:07:09.081Z,77.77
2018-03-06T16:09:37.048Z,75.03
2018-03-06T16:12:05.054Z,94.17
2018-03-06T16:14:32.992Z,83.97
2018-03-06T16:17:01.073Z,82.13
2018-03-06T16:19:29.068Z,76.97
2018-03-06T16:21:57.059Z,73.90
2018-03-06T16:24:25.006Z,77.23
2018-03-06T16:26:52.962Z,71.77
2018-03-06T16:29:20.917Z,74.70
2018-03-06T16:31:48.836Z,72.97
2018-03-06T16:34:16.845Z,80.00
2018-03-06T16:36:44.835Z,73.30
2018-03-06T16:39:12.776Z,71.63
2018-03-06T16:41:41.716Z,114.70
2018-03-06T16:44:09.652Z,120.77
2018-03-06T16:46:37.597Z,141.70
2018-03-06T16:49:05.644Z,78.47
2018-03-06T16:51:33.573Z,75.40
2018-03-06T16:54:01.571Z,73.43
2018-03-06T16:56:29.614Z,78.57
2018-03-06T16:58:57.561Z,73.77
2018-03-06T17:01:25.515Z,77.97
2018-03-06T17:03:53.468Z,79.00
2018-03-06T17:06:21.406Z,77.17
2018-03-06T17:08:49.342Z,75.47
2018-03-06T17:11:17.304Z,82.67
2018-03-06T17:13:46.019Z,96.77
2018-03-06T17:16:15.848Z,78.60
2018-03-06T17:18:43.769Z,90.33
2018-03-06T17:21:11.702Z,86.60
2018-03-06T17:23:39.642Z,92.67
2018-03-06T17:26:07.607Z,83.37
2018-03-06T17:28:35.686Z,76.53
2018-03-06T17:31:03.673Z,75.47
2018-03-06T17:33:31.613Z,75.70
2018-03-06T17:35:59.568Z,75.43
2018-03-06T17:38:27.531Z,73.70
2018-03-06T17:40:55.499Z,72.70
2018-03-06T17:43:23.409Z,75.37
2018-03-06T17:45:51.428Z,73.77
2018-03-06T17:48:19.451Z,75.70
2018-03-06T17:50:47.427Z,74.83
2018-03-06T17:53:15.393Z,74.97
2018-03-06T17:55:43.336Z,77.67
2018-03-06T17:58:11.280Z,96.10
2018-03-06T18:00:39.214Z,82.60
2018-03-06T18:03:07.200Z,86.13
2018-03-06T18:05:35.182Z,73.77
2018-03-06T18:08:03.130Z,83.50
2018-03-06T18:10:31.082Z,148.23
2018-03-06T18:12:59.033Z,78.90
2018-03-06T18:15:27.001Z,76.80
2018-03-06T18:17:54.970Z,76.40
2018-03-06T18:20:22.936Z,76.00
2018-03-06T18:22:50.869Z,74.87
2018-03-06T18:25:18.857Z,77.90
2018-03-06T18:27:46.777Z,79.77
2018-03-06T18:30:14.712Z,77.10
2018-03-06T18:32:42.679Z,78.60
2018-03-06T18:35:10.665Z,77.80
2018-03-06T18:37:38.719Z,75.53
2018-03-06T18:40:06.668Z,77.60
2018-03-06T18:42:34.637Z,78.93
2018-03-06T18:45:02.632Z,84.07
2018-03-06T18:47:30.547Z,82.67
2018-03-06T18:50:04.077Z,81.27
2018-03-06T18:52:32.142Z,81.07
2018-03-06T18:55:00.056Z,79.73
2018-03-06T18:57:28.004Z,81.07
2018-03-06T19:03:17.829Z,81.63
2018-03-06T19:08:41.141Z,85.10
2018-03-06T19:11:09.159Z,85.10
2018-03-06T19:13:37.094Z,82.77
2018-03-06T19:16:05.037Z,132.23
2018-03-06T19:18:32.963Z,103.00
2018-03-06T19:21:00.917Z,123.87
2018-03-06T19:23:28.884Z,127.83
2018-03-06T19:25:56.904Z,97.47
2018-03-06T19:28:24.841Z,95.50
2018-03-06T19:30:52.790Z,84.10
2018-03-06T19:33:23.045Z,82.00
2018-03-06T19:35:52.096Z,81.70
2018-03-06T19:38:20.021Z,82.80
2018-03-06T19:40:48.040Z,84.73
2018-03-06T19:43:16.116Z,82.33
2018-03-06T19:45:44.047Z,85.63
2018-03-06T19:48:11.987Z,79.87
2018-03-06T19:50:39.908Z,81.07
2018-03-06T19:53:07.927Z,81.60
2018-03-06T19:55:35.866Z,85.80
2018-03-06T19:58:04.579Z,87.73
2018-03-06T20:00:32.521Z,78.90
2018-03-06T20:03:00.520Z,80.23
2018-03-06T20:05:28.482Z,83.33
2018-03-06T20:07:56.456Z,92.97
2018-03-06T20:10:24.440Z,86.50
2018-03-06T20:12:52.568Z,83.57
2018-03-06T20:15:20.589Z,80.87
2018-03-06T20:17:48.534Z,84.83
2018-03-06T20:20:17.318Z,86.70
2018-03-06T20:22:45.222Z,86.70
2018-03-06T20:25:18.843Z,86.27
2018-03-06T20:27:46.763Z,83.83
2018-03-06T20:30:20.420Z,83.43
2018-03-06T20:32:54.013Z,85.10
2018-03-06T20:35:22.002Z,85.83
2018-03-06T20:37:49.926Z,83.60
2018-03-06T20:40:23.497Z,81.13
2018-03-06T20:42:51.400Z,84.50
2018-03-06T20:45:19.352Z,87.80
2018-03-06T20:47:47.336Z,80.47
2018-03-06T20:50:15.267Z,87.97
2018-03-06T20:52:48.993Z,82.90
2018-03-06T20:55:16.977Z,90.80
2018-03-06T20:57:44.977Z,86.80
2018-03-06T21:00:12.940Z,84.33
2018-03-06T21:02:40.919Z,80.97
2018-03-06T21:05:08.898Z,87.17
2018-03-06T21:07:36.844Z,84.97
2018-03-06T21:10:04.954Z,85.30
2018-03-06T21:12:32.998Z,85.50
2018-03-06T21:15:01.089Z,88.27
2018-03-06T21:17:29.020Z,88.13
2018-03-06T21:19:57.130Z,89.87
2018-03-06T21:22:25.056Z,87.27
2018-03-06T21:24:53.196Z,187.70
2018-03-06T21:27:21.123Z,122.73
2018-03-06T21:29:49.104Z,141.90
2018-03-06T21:32:17.134Z,116.67
2018-03-06T21:34:45.081Z,106.57
2018-03-06T21:37:12.994Z,96.80
2018-03-06T21:39:40.929Z,88.90
2018-03-06T21:42:08.938Z,88.53
2018-03-06T21:44:36.866Z,87.50
2018-03-06T21:47:04.817Z,91.83
2018-03-06T21:49:32.752Z,91.03
2018-03-06T21:52:00.720Z,85.47
2018-03-06T21:54:28.663Z,89.27
2018-03-06T21:56:56.598Z,85.67
2018-03-06T21:59:24.745Z,90.43
2018-03-06T22:01:52.657Z,85.77
2018-03-06T22:04:20.672Z,87.03
2018-03-06T22:06:48.673Z,86.33
2018-03-06T22:09:17.532Z,88.70
2018-03-06T22:11:45.498Z,86.50
2018-03-06T22:14:14.118Z,87.13
2018-03-06T22:16:42.140Z,83.40
2018-03-06T22:19:10.923Z,85.27
2018-03-06T22:21:38.912Z,91.20
2018-03-06T22:24:06.857Z,87.17
2018-03-06T22:26:34.892Z,87.53
2018-03-06T22:29:02.881Z,87.67
2018-03-06T22:31:31.655Z,90.10
2018-03-06T22:33:59.634Z,89.10
2018-03-06T22:36:27.649Z,91.37
2018-03-06T22:38:55.619Z,88.33
2018-03-06T22:41:23.575Z,86.20
2018-03-06T22:43:51.537Z,89.30
2018-03-06T22:46:19.465Z,91.67
2018-03-06T22:48:47.427Z,85.57
2018-03-06T22:51:15.369Z,88.43
2018-03-06T22:53:43.334Z,87.20
2018-03-06T22:56:11.297Z,88.80
2018-03-06T22:58:39.254Z,89.17
2018-03-06T23:01:08.081Z,90.37
2018-03-06T23:03:36.021Z,83.83
2018-03-06T23:06:04.160Z,90.70
2018-03-06T23:08:32.146Z,90.53
2018-03-06T23:11:00.054Z,91.87
2018-03-06T23:13:28.178Z,88.97
2018-03-06T23:15:56.660Z,91.67
2018-03-06T23:18:24.664Z,85.53
2018-03-06T23:20:52.599Z,89.00
2018-03-06T23:23:20.568Z,90.60
2018-03-06T23:25:48.610Z,89.83
2018-03-06T23:28:16.549Z,92.67
2018-03-06T23:30:44.610Z,90.20
2018-03-06T23:33:12.621Z,89.90
2018-03-06T23:35:40.616Z,91.67
2018-03-06T23:38:08.571Z,93.73
2018-03-06T23:40:36.604Z,91.20
2018-03-06T23:43:04.591Z,92.37
2018-03-06T23:45:32.628Z,87.90
2018-03-06T23:48:00.693Z,89.50
2018-03-06T23:50:28.618Z,90.53
2018-03-06T23:52:56.681Z,94.67
2018-03-06T23:55:24.698Z,91.40
2018-03-06T23:57:52.707Z,92.00
